Time;durP1;ratioP1;P1;durP2;ratioP2;P2;SDS_P1;SDS_P2;PMS_P1;PMS_P2;Temp;Humidity;BMP_temperature;BMP_pressure;BME280_temperature;BME280_humidity;BME280_pressure;Samples;Min_cycle;Max_cycle;Signal;HPM_P1;HPM_P2
2021/05/09 00:02:24;;;;;;;5.57;2.90;;;19.60;34.30;;;;;;4745502;30;20051;-83
2021/05/09 00:04:50;;;;;;;3.17;2.40;;;19.60;34.30;;;;;;4760079;30;20043;-83
2021/05/09 00:07:16;;;;;;;3.42;2.67;;;19.60;34.30;;;;;;4759619;30;20041;-83
2021/05/09 00:09:42;;;;;;;4.95;2.88;;;19.70;34.30;;;;;;4762066;30;20117;-84
2021/05/09 00:12:09;;;;;;;3.83;3.20;;;19.70;34.30;;;;;;4763133;30;20054;-83
2021/05/09 00:14:36;;;;;;;3.72;2.22;;;19.70;34.40;;;;;;4762856;30;20042;-84
2021/05/09 00:17:02;;;;;;;5.53;3.03;;;19.70;34.50;;;;;;4748475;30;20427;-83
2021/05/09 00:19:28;;;;;;;6.50;2.60;;;19.70;34.50;;;;;;4762946;30;20041;-83
2021/05/09 00:21:54;;;;;;;4.20;2.78;;;19.60;34.70;;;;;;4763101;30;20058;-82
2021/05/09 00:24:20;;;;;;;2.20;1.73;;;19.60;34.80;;;;;;4763163;30;20063;-84
2021/05/09 00:26:47;;;;;;;4.80;2.83;;;19.60;35.00;;;;;;4748577;30;20047;-82
2021/05/09 00:29:13;;;;;;;2.92;2.72;;;19.60;35.20;;;;;;4748511;30;20045;-83
2021/05/09 00:31:39;;;;;;;5.15;3.20;;;19.50;35.40;;;;;;4748062;30;20157;-84
2021/05/09 00:34:05;;;;;;;4.05;3.35;;;19.50;35.60;;;;;;4747958;30;20430;-83
2021/05/09 00:36:32;;;;;;;3.88;2.42;;;19.50;35.80;;;;;;4748530;30;20118;-82
2021/05/09 00:38:58;;;;;;;2.80;2.15;;;19.40;36.00;;;;;;4748429;30;20590;-82
2021/05/09 00:41:24;;;;;;;3.63;2.53;;;19.40;36.30;;;;;;4734097;30;20092;-83
2021/05/09 00:43:50;;;;;;;3.35;3.05;;;19.30;36.60;;;;;;4748473;30;20426;-82
2021/05/09 00:46:17;;;;;;;3.50;3.20;;;19.30;36.80;;;;;;4734081;30;20042;-83
2021/05/09 00:48:43;;;;;;;3.63;2.08;;;19.20;37.10;;;;;;4762625;30;20050;-83
2021/05/09 00:51:09;;;;;;;6.75;3.97;;;19.30;37.00;;;;;;4747844;30;20069;-83
2021/05/09 00:53:36;;;;;;;5.93;4.03;;;19.30;36.80;;;;;;4747674;30;20034;-83
2021/05/09 00:56:02;;;;;;;6.88;4.00;;;19.30;36.90;;;;;;4762740;30;20123;-84
2021/05/09 00:58:28;;;;;;;;;;;19.30;36.90;;;;;;4762884;30;20129;-83
2021/05/09 01:00:54;;;;;;;4.97;3.92;;;19.30;37.00;;;;;;4733098;30;20008;-83
2021/05/09 01:03:26;;;;;;;4.10;3.65;;;19.30;36.90;;;;;;4747935;30;20053;-84
2021/05/09 01:05:55;;;;;;;5.07;4.30;;;19.30;36.80;;;;;;4749936;30;20133;-83
2021/05/09 01:08:22;;;;;;;6.05;3.95;;;19.30;36.90;;;;;;4747255;30;20074;-83
2021/05/09 01:10:49;;;;;;;6.95;4.00;;;19.30;37.00;;;;;;4747820;30;20043;-83
2021/05/09 01:13:16;;;;;;;12.27;4.47;;;19.40;37.20;;;;;;4747946;30;20548;-83
2021/05/09 01:15:42;;;;;;;5.90;3.90;;;19.40;37.10;;;;;;4747901;30;20046;-84
2021/05/09 01:18:09;;;;;;;5.30;3.90;;;19.40;37.10;;;;;;4747230;30;20622;-83
2021/05/09 01:20:36;;;;;;;6.80;3.90;;;19.40;37.10;;;;;;4746948;30;20099;-83
2021/05/09 01:23:03;;;;;;;7.10;4.00;;;19.40;37.10;;;;;;4747035;30;20122;-84
2021/05/09 01:25:30;;;;;;;4.28;3.88;;;19.40;37.10;;;;;;4778104;30;20074;-84
2021/05/09 01:27:57;;;;;;;3.90;3.60;;;19.40;37.20;;;;;;4761613;30;20102;-83
2021/05/09 01:30:23;;;;;;;5.68;3.90;;;19.40;37.20;;;;;;4762005;30;20038;-83
2021/05/09 01:32:49;;;;;;;;;;;19.40;37.50;;;;;;4732693;30;20133;-83
2021/05/09 01:35:16;;;;;;;5.57;3.90;;;19.30;37.80;;;;;;4778087;30;19929;-82
2021/05/09 01:37:42;;;;;;;6.13;3.95;;;19.30;38.00;;;;;;4762257;30;20047;-82
2021/05/09 01:40:11;;;;;;;6.57;4.00;;;19.30;39.40;;;;;;4732826;30;20053;-84
2021/05/09 01:42:37;;;;;;;5.85;3.67;;;19.20;38.40;;;;;;4748168;30;20034;-84
2021/05/09 01:45:05;;;;;;;4.63;3.65;;;19.20;38.70;;;;;;4761519;30;20110;-83
2021/05/09 01:47:31;;;;;;;9.80;4.03;;;19.10;38.90;;;;;;4747291;30;20103;-83
2021/05/09 01:49:57;;;;;;;4.43;3.80;;;19.20;38.70;;;;;;4747528;30;20045;-83
2021/05/09 01:52:24;;;;;;;4.97;3.47;;;19.20;38.70;;;;;;4748166;30;20528;-83
2021/05/09 01:54:50;;;;;;;6.82;4.03;;;19.30;38.50;;;;;;4763943;30;20058;-84
2021/05/09 01:57:17;;;;;;;6.00;3.67;;;19.40;38.30;;;;;;4749043;30;20042;-81
2021/05/09 01:59:44;;;;;;;6.05;3.92;;;19.60;38.20;;;;;;4748164;30;20043;-84
2021/05/09 02:02:10;;;;;;;6.53;3.65;;;19.70;37.90;;;;;;4747427;30;20117;-84
2021/05/09 02:04:37;;;;;;;5.60;3.60;;;19.90;37.60;;;;;;4747550;30;20066;-83
2021/05/09 02:07:03;;;;;;;3.92;3.45;;;19.90;37.30;;;;;;4747144;30;20118;-82
2021/05/09 02:09:29;;;;;;;4.70;3.50;;;20.10;37.20;;;;;;4747540;30;20450;-84
2021/05/09 02:11:56;;;;;;;6.28;3.63;;;20.20;37.20;;;;;;4779982;30;20093;-81
2021/05/09 02:14:22;;;;;;;7.55;3.60;;;20.50;36.90;;;;;;4766874;30;20050;-83
2021/05/09 02:16:48;;;;;;;4.38;3.30;;;20.80;36.30;;;;;;4751219;30;20046;-83
2021/05/09 02:19:15;;;;;;;5.65;3.50;;;21.10;35.30;;;;;;4754200;30;20046;-83
2021/05/09 02:21:41;;;;;;;7.55;3.60;;;21.30;34.90;;;;;;4751554;29;20039;-82
2021/05/09 02:24:07;;;;;;;;;;;21.60;34.30;;;;;;4762768;30;20051;-83
2021/05/09 02:26:34;;;;;;;5.03;3.17;;;21.90;33.90;;;;;;4732867;30;20037;-82
2021/05/09 02:29:00;;;;;;;6.85;3.60;;;22.20;33.10;;;;;;4746669;30;20038;-82
2021/05/09 02:31:26;;;;;;;4.53;3.10;;;22.60;32.50;;;;;;4746256;30;20035;-81
2021/05/09 02:33:52;;;;;;;9.40;3.35;;;22.90;31.70;;;;;;4746633;30;20057;-82
2021/05/09 02:36:19;;;;;;;5.70;3.08;;;23.10;31.00;;;;;;4761570;30;20046;-81
2021/05/09 02:38:45;;;;;;;5.97;3.42;;;23.30;30.20;;;;;;4760355;30;20034;-80
2021/05/09 02:41:11;;;;;;;4.03;3.35;;;23.20;29.70;;;;;;4746066;30;20045;-83
2021/05/09 02:43:43;;;;;;;3.58;2.90;;;23.00;29.70;;;;;;4745787;30;20038;-82
2021/05/09 02:46:09;;;;;;;6.47;4.15;;;22.90;29.80;;;;;;4760845;30;20035;-81
2021/05/09 02:48:35;;;;;;;4.50;3.60;;;22.70;30.00;;;;;;4745638;30;20073;-81
2021/05/09 02:51:02;;;;;;;3.85;3.40;;;22.60;30.10;;;;;;4760574;30;20058;-80
2021/05/09 02:53:28;;;;;;;7.03;3.65;;;22.50;30.20;;;;;;4746323;30;20051;-82
2021/05/09 02:55:54;;;;;;;;;;;22.40;30.30;;;;;;4746249;30;20073;-82
2021/05/09 02:58:20;;;;;;;;;;;22.50;30.50;;;;;;4760651;30;19936;-83
2021/05/09 03:00:47;;;;;;;4.60;2.90;;;22.50;30.30;;;;;;4731767;30;19940;-83
2021/05/09 03:03:13;;;;;;;7.95;3.80;;;22.60;30.10;;;;;;4746275;30;20042;-82
2021/05/09 03:05:39;;;;;;;3.92;3.30;;;22.60;30.00;;;;;;4760044;30;20438;-84
2021/05/09 03:08:05;;;;;;;;;;;22.60;30.00;;;;;;4777147;29;20087;-82
2021/05/09 03:10:33;;;;;;;4.85;3.30;;;22.70;30.10;;;;;;4760269;30;19929;-81
2021/05/09 03:12:59;;;;;;;8.15;3.63;;;22.80;29.90;;;;;;4745657;30;20035;-81
2021/05/09 03:15:26;;;;;;;3.67;3.38;;;22.90;29.80;;;;;;4759043;30;20533;-81
2021/05/09 03:17:52;;;;;;;4.35;3.30;;;22.90;29.50;;;;;;4731150;30;20110;-82
2021/05/09 03:20:19;;;;;;;6.18;3.00;;;22.90;29.50;;;;;;4743383;30;20031;-82
2021/05/09 03:22:47;;;;;;;5.63;3.20;;;22.90;29.50;;;;;;4749136;29;20061;-80
2021/05/09 03:25:13;;;;;;;5.15;3.72;;;22.80;29.70;;;;;;4763407;29;20419;-81
2021/05/09 03:27:39;;;;;;;;;;;22.80;29.80;;;;;;4763623;29;20486;-82
2021/05/09 03:30:06;;;;;;;3.90;3.20;;;22.80;29.70;;;;;;4778383;29;20419;-82
2021/05/09 03:32:33;;;;;;;5.22;3.10;;;22.80;29.60;;;;;;4763031;29;20049;-84
2021/05/09 03:34:59;;;;;;;3.85;3.30;;;22.80;29.70;;;;;;4763381;29;20042;-82
2021/05/09 03:37:25;;;;;;;5.57;2.83;;;22.80;29.40;;;;;;4748702;29;20044;-82
2021/05/09 03:39:52;;;;;;;;;;;22.90;29.40;;;;;;4763509;29;20129;-81
2021/05/09 03:42:18;;;;;;;3.25;3.00;;;22.90;29.40;;;;;;4763103;29;19932;-82
2021/05/09 03:44:44;;;;;;;5.35;3.15;;;22.90;29.20;;;;;;4765567;29;20045;-84
2021/05/09 03:47:11;;;;;;;3.85;2.80;;;23.00;29.10;;;;;;4737580;29;20042;-84
2021/05/09 03:49:38;;;;;;;4.95;2.90;;;23.20;28.90;;;;;;4766054;29;20048;-82
2021/05/09 03:52:04;;;;;;;4.68;3.00;;;23.40;28.70;;;;;;4772728;29;20058;-82
2021/05/09 03:54:30;;;;;;;2.80;2.60;;;23.60;28.30;;;;;;4781098;29;20070;-83
2021/05/09 03:56:57;;;;;;;5.70;2.80;;;23.70;27.80;;;;;;4796052;29;20836;-82
2021/05/09 03:59:23;;;;;;;3.75;2.92;;;23.90;27.60;;;;;;4766123;29;20061;-81
2021/05/09 04:01:49;;;;;;;5.50;2.90;;;24.20;27.50;;;;;;4796323;29;20062;-82
2021/05/09 04:04:15;;;;;;;4.93;2.55;;;24.50;26.90;;;;;;4795889;29;20044;-83
2021/05/09 04:06:42;;;;;;;5.78;2.90;;;24.90;26.70;;;;;;4766051;29;20041;-84
2021/05/09 04:09:09;;;;;;;8.38;2.78;;;25.10;26.10;;;;;;4795855;29;20437;-85
2021/05/09 04:11:35;;;;;;;6.15;2.78;;;25.20;25.90;;;;;;4766406;29;20121;-83
2021/05/09 04:14:01;;;;;;;3.58;2.80;;;25.40;25.60;;;;;;4780877;29;20038;-84
2021/05/09 04:16:31;;;;;;;2.47;2.30;;;25.60;25.70;;;;;;4780993;29;20104;-83
2021/05/09 04:18:57;;;;;;;4.40;2.90;;;25.80;24.80;;;;;;4750975;29;20048;-83
2021/05/09 04:21:23;;;;;;;4.43;2.63;;;25.80;24.40;;;;;;4780837;29;20537;-82
2021/05/09 04:23:49;;;;;;;3.85;2.95;;;25.80;24.50;;;;;;4795324;29;20390;-81
2021/05/09 04:26:16;;;;;;;4.38;2.70;;;25.90;24.50;;;;;;4780038;29;20529;-83
2021/05/09 04:28:42;;;;;;;3.60;2.88;;;25.80;24.40;;;;;;4780613;29;20057;-82
2021/05/09 04:31:08;;;;;;;6.78;2.88;;;25.80;25.40;;;;;;4780392;29;20071;-83
2021/05/09 04:33:35;;;;;;;5.15;2.90;;;25.70;24.90;;;;;;4765167;29;20216;-82
2021/05/09 04:36:01;;;;;;;;;;;25.60;24.70;;;;;;4795348;29;20482;-84
2021/05/09 04:38:27;;;;;;;2.95;2.53;;;25.70;25.00;;;;;;4765907;29;19959;-82
2021/05/09 04:40:53;;;;;;;4.25;2.33;;;25.70;24.40;;;;;;4780309;29;20057;-82
2021/05/09 04:43:21;;;;;;;2.88;2.63;;;25.80;24.50;;;;;;4765267;29;20037;-84
2021/05/09 04:45:52;;;;;;;9.20;2.70;;;25.80;24.30;;;;;;4767871;29;20033;-82
2021/05/09 04:48:19;;;;;;;6.32;3.00;;;25.80;24.40;;;;;;4784508;29;20064;-81
2021/05/09 04:50:45;;;;;;;;;;;25.90;24.60;;;;;;4814837;29;20072;-83
2021/05/09 04:53:30;;;;;;;3.53;2.38;;;26.10;24.40;;;;;;4781494;29;19959;-82
2021/05/09 04:56:00;;;;;;;5.03;2.92;;;26.20;23.70;;;;;;4765580;29;20038;-83
2021/05/09 04:58:27;;;;;;;6.40;2.70;;;26.20;23.30;;;;;;4769094;29;20452;-82
2021/05/09 05:00:55;;;;;;;7.72;2.78;;;26.40;23.30;;;;;;4783963;29;20042;-82
2021/05/09 05:03:25;;;;;;;5.95;2.42;;;26.50;23.40;;;;;;4753523;29;20597;-82
2021/05/09 05:05:53;;;;;;;7.82;3.00;;;26.80;23.00;;;;;;4783105;29;20050;-83
2021/05/09 05:08:21;;;;;;;6.38;2.47;;;27.10;22.80;;;;;;4769699;29;20050;-81
2021/05/09 05:11:00;;;;;;;2.97;2.50;;;27.60;22.50;;;;;;4755057;29;20046;-82
2021/05/09 05:13:31;;;;;;;4.63;2.55;;;28.60;21.90;;;;;;4797825;29;20054;-85
2021/05/09 05:16:01;;;;;;;4.57;2.53;;;29.80;20.50;;;;;;4784047;29;20041;-83
2021/05/09 05:18:29;;;;;;;2.70;2.50;;;31.00;18.80;;;;;;4784599;29;20414;-84
2021/05/09 05:21:01;;;;;;;5.35;2.50;;;32.20;17.80;;;;;;4770364;29;20052;-84
2021/05/09 05:23:30;;;;;;;6.43;2.60;;;33.20;16.40;;;;;;4785379;29;20056;-83
2021/05/09 05:25:58;;;;;;;4.93;2.28;;;34.20;15.60;;;;;;4753884;29;20556;-84
2021/05/09 05:28:25;;;;;;;3.80;2.15;;;35.20;14.70;;;;;;4783090;29;20065;-85
2021/05/09 05:30:57;;;;;;;6.90;3.20;;;35.80;13.00;;;;;;4769241;29;20041;-85
2021/05/09 05:33:31;;;;;;;3.72;2.00;;;36.00;13.10;;;;;;4798321;29;20173;-86
2021/05/09 05:35:58;;;;;;;2.70;2.10;;;36.60;12.70;;;;;;4768726;29;20521;-85
2021/05/09 05:38:25;;;;;;;2.15;1.83;;;37.30;12.30;;;;;;4798653;29;20297;-88
2021/05/09 05:40:56;;;;;;;6.72;2.45;;;37.80;11.30;;;;;;4797990;29;20048;-86
2021/05/09 05:43:23;;;;;;;4.53;2.53;;;37.80;10.90;;;;;;4754471;29;20050;-85
2021/05/09 05:45:51;;;;;;;6.40;2.03;;;37.90;11.20;;;;;;4814351;29;20038;-84
2021/05/09 05:48:19;;;;;;;5.40;2.45;;;38.00;10.40;;;;;;4813962;29;20041;-85
2021/05/09 05:50:45;;;;;;;4.95;2.15;;;38.10;10.90;;;;;;4755023;29;20054;-86
2021/05/09 05:53:11;;;;;;;6.03;2.33;;;38.60;11.00;;;;;;4768258;29;20421;-84
2021/05/09 05:55:39;;;;;;;2.90;1.90;;;39.30;10.00;;;;;;4782486;29;20033;-83
2021/05/09 05:58:06;;;;;;;2.67;2.30;;;40.00;9.50;;;;;;4797650;29;20038;-85
2021/05/09 06:00:32;;;;;;;5.43;2.20;;;40.40;9.10;;;;;;4782292;29;20078;-83
2021/05/09 06:02:58;;;;;;;3.05;1.90;;;40.80;8.80;;;;;;4780714;29;20034;-87
2021/05/09 06:05:24;;;;;;;2.88;2.00;;;40.80;8.50;;;;;;4781499;29;20121;-85
2021/05/09 06:07:51;;;;;;;4.97;2.45;;;41.10;8.40;;;;;;4753066;29;20038;-85
2021/05/09 06:10:17;;;;;;;4.40;2.30;;;41.20;8.10;;;;;;4767090;29;20053;-84
2021/05/09 06:12:43;;;;;;;4.68;2.78;;;41.40;7.80;;;;;;4782163;29;20121;-87
2021/05/09 06:15:10;;;;;;;9.10;2.63;;;41.60;7.80;;;;;;4782646;29;20117;-86
2021/05/09 06:17:37;;;;;;;2.53;2.33;;;41.50;7.80;;;;;;4782063;29;20037;-87
2021/05/09 06:20:05;;;;;;;9.27;3.08;;;41.80;7.70;;;;;;4737367;29;20433;-85
2021/05/09 06:22:31;;;;;;;11.57;2.90;;;41.70;7.50;;;;;;4766832;29;20137;-86
2021/05/09 06:24:58;;;;;;;6.68;2.70;;;41.50;7.50;;;;;;4737349;29;20202;-86
2021/05/09 06:27:24;;;;;;;4.28;2.67;;;41.40;7.60;;;;;;4738139;29;20537;-85
2021/05/09 06:29:51;;;;;;;6.72;3.10;;;41.40;7.80;;;;;;4782119;29;20081;-86
2021/05/09 06:32:17;;;;;;;4.35;3.00;;;41.60;7.70;;;;;;4766728;29;20121;-86
2021/05/09 06:34:43;;;;;;;6.28;2.80;;;41.90;7.30;;;;;;4753136;29;20046;-87
2021/05/09 06:37:19;;;;;;;5.03;2.80;;;42.00;7.50;;;;;;4757241;29;20071;-96
2021/05/09 06:39:48;;;;;;;3.33;2.85;;;42.10;6.90;;;;;;4757344;29;20045;-93
2021/05/09 06:42:14;;;;;;;4.65;2.80;;;41.70;7.10;;;;;;4770874;29;20038;-92
2021/05/09 06:44:52;;;;;;;6.47;3.10;;;41.50;8.10;;;;;;4803400;29;20599;-92
2021/05/09 06:47:21;;;;;;;3.88;2.45;;;40.80;7.90;;;;;;4776531;29;20061;-95
2021/05/09 06:49:51;;;;;;;4.47;2.83;;;40.90;7.90;;;;;;4798470;29;20647;-94
2021/05/09 06:52:21;;;;;;;2.47;2.28;;;41.30;7.50;;;;;;4827129;29;20065;-93
2021/05/09 06:55:20;;;;;;;6.35;2.40;;;41.70;7.30;;;;;;4814592;29;20041;-96
2021/05/09 06:57:54;;;;;;;3.25;2.53;;;41.90;7.10;;;;;;4813158;29;20045;-95
2021/05/09 07:00:29;;;;;;;4.25;2.40;;;41.90;6.60;;;;;;4795673;29;20041;-92
2021/05/09 07:03:02;;;;;;;3.15;2.40;;;41.60;7.10;;;;;;4812349;29;20045;-96
2021/05/09 07:05:31;;;;;;;2.33;2.10;;;41.60;7.00;;;;;;4808460;29;20136;-93
2021/05/09 07:08:10;;;;;;;5.65;2.72;;;41.80;7.00;;;;;;4785910;29;20098;-92
2021/05/09 07:10:36;;;;;;;4.75;2.40;;;42.10;6.90;;;;;;4794543;29;20078;-93
2021/05/09 07:13:06;;;;;;;8.57;2.90;;;42.50;6.50;;;;;;4763944;29;20049;-90
2021/05/09 07:15:40;;;;;;;2.50;2.13;;;43.10;6.40;;;;;;4802737;29;20056;-90
2021/05/09 07:18:20;;;;;;;2.33;1.85;;;43.30;5.40;;;;;;4806659;29;20050;-91
2021/05/09 07:20:57;;;;;;;10.52;3.28;;;42.60;5.90;;;;;;4795537;29;20045;-94
2021/05/09 07:23:37;;;;;;;6.47;3.03;;;41.80;6.90;;;;;;4815971;29;20046;-91
2021/05/09 07:26:05;;;;;;;4.55;3.50;;;41.40;6.80;;;;;;4804040;29;20054;-94
2021/05/09 07:28:32;;;;;;;8.00;2.90;;;41.30;7.10;;;;;;4791166;29;20101;-92
2021/05/09 07:31:02;;;;;;;5.25;2.70;;;41.40;7.10;;;;;;4798164;29;20061;-92
2021/05/09 07:33:33;;;;;;;11.40;3.50;;;41.40;7.10;;;;;;4771747;29;20057;-94
2021/05/09 07:36:02;;;;;;;3.55;1.70;;;41.40;6.90;;;;;;4770101;29;20050;-91
2021/05/09 07:38:30;;;;;;;6.07;2.85;;;41.20;6.60;;;;;;4797391;29;20083;-92
2021/05/09 07:40:58;;;;;;;3.60;2.42;;;40.50;7.30;;;;;;4782857;29;20048;-88
2021/05/09 07:43:25;;;;;;;5.43;2.60;;;40.30;7.60;;;;;;4765986;29;20062;-88
2021/05/09 07:45:51;;;;;;;4.57;2.50;;;40.20;7.20;;;;;;4782252;29;20065;-88
2021/05/09 07:48:17;;;;;;;2.25;2.00;;;39.60;7.60;;;;;;4766859;29;20038;-89
2021/05/09 07:50:44;;;;;;;4.10;3.05;;;38.90;8.20;;;;;;4766391;29;20054;-90
2021/05/09 07:53:13;;;;;;;4.88;2.75;;;38.20;8.90;;;;;;4753615;29;20049;-91
2021/05/09 07:55:41;;;;;;;5.13;3.00;;;38.20;9.50;;;;;;4771262;29;20536;-91
2021/05/09 07:58:24;;;;;;;8.07;3.50;;;38.80;8.80;;;;;;4755210;29;20064;-90
2021/05/09 08:00:53;;;;;;;4.25;2.97;;;39.50;8.30;;;;;;4769389;29;20053;-90
2021/05/09 08:03:24;;;;;;;5.20;3.20;;;40.30;7.90;;;;;;4770267;29;20057;-90
2021/05/09 08:05:55;;;;;;;5.18;3.28;;;40.70;7.30;;;;;;4784369;29;20042;-90
2021/05/09 08:08:32;;;;;;;5.50;3.50;;;40.60;7.20;;;;;;4770415;29;20057;-92
2021/05/09 08:11:00;;;;;;;5.40;2.80;;;40.00;7.70;;;;;;4799932;29;20039;-89
2021/05/09 08:13:27;;;;;;;5.53;3.08;;;40.10;7.60;;;;;;4793945;29;20118;-89
2021/05/09 08:15:54;;;;;;;2.70;2.50;;;40.30;7.50;;;;;;4790344;29;20125;-89
2021/05/09 08:18:29;;;;;;;5.57;2.97;;;40.30;7.50;;;;;;4786918;29;20543;-90
2021/05/09 08:21:05;;;;;;;4.85;3.10;;;40.40;7.40;;;;;;4769616;29;20066;-90
2021/05/09 08:23:39;;;;;;;3.83;2.83;;;40.10;7.40;;;;;;4799000;29;20050;-88
2021/05/09 08:26:13;;;;;;;2.90;2.50;;;39.70;8.00;;;;;;4797604;29;20074;-90
2021/05/09 08:28:53;;;;;;;5.95;2.85;;;39.70;8.10;;;;;;4771536;29;20446;-91
2021/05/09 08:31:24;;;;;;;3.70;2.65;;;39.60;7.90;;;;;;4802088;29;20042;-89
2021/05/09 08:33:53;;;;;;;4.75;2.15;;;38.90;8.20;;;;;;4769195;29;20053;-90
2021/05/09 08:36:23;;;;;;;3.13;2.58;;;38.30;8.80;;;;;;4768291;29;20688;-90
2021/05/09 08:38:50;;;;;;;2.67;2.25;;;37.80;9.30;;;;;;4799329;29;20056;-89
2021/05/09 08:41:17;;;;;;;4.95;2.63;;;37.70;9.60;;;;;;4753008;29;20038;-89
2021/05/09 08:43:45;;;;;;;2.20;2.05;;;37.80;9.60;;;;;;4788446;29;20114;-90
2021/05/09 08:46:12;;;;;;;4.38;1.80;;;38.20;9.40;;;;;;4777706;29;20065;-89
2021/05/09 08:48:51;;;;;;;5.32;2.40;;;38.70;8.90;;;;;;4789560;29;20050;-90
2021/05/09 08:51:25;;;;;;;2.92;2.40;;;39.30;8.70;;;;;;4774369;29;20046;-92
2021/05/09 08:53:56;;;;;;;4.07;2.20;;;39.90;8.20;;;;;;4774696;29;20111;-91
2021/05/09 08:56:26;;;;;;;2.60;2.20;;;40.50;7.50;;;;;;4787479;29;20117;-90
2021/05/09 08:58:59;;;;;;;4.88;2.30;;;41.20;7.30;;;;;;4803541;29;20050;-91
2021/05/09 09:01:40;;;;;;;5.47;2.60;;;41.90;6.70;;;;;;4785123;29;20057;-93
2021/05/09 09:04:09;;;;;;;4.85;2.30;;;42.40;6.10;;;;;;4783370;29;20061;-86
2021/05/09 09:06:48;;;;;;;2.75;1.80;;;42.50;6.30;;;;;;4783000;29;20042;-87
2021/05/09 09:09:25;;;;;;;2.30;1.80;;;43.10;5.80;;;;;;4762472;29;20046;-94
2021/05/09 09:12:01;;;;;;;2.83;2.13;;;43.00;5.50;;;;;;4794931;29;20068;-94
2021/05/09 09:15:22;;;;;;;4.45;2.05;;;43.10;5.10;;;;;;4790554;29;20042;-94
2021/05/09 09:17:52;;;;;;;5.22;2.00;;;42.40;5.40;;;;;;4810517;29;20030;-91
2021/05/09 09:20:19;;;;;;;4.55;2.30;;;42.00;5.80;;;;;;4782425;29;20050;-93
2021/05/09 09:23:04;;;;;;;2.10;2.00;;;41.50;6.30;;;;;;4798284;29;20053;-94
2021/05/09 09:25:38;;;;;;;3.72;2.22;;;40.70;6.50;;;;;;4816588;29;20074;-93
2021/05/09 09:28:05;;;;;;;3.42;1.95;;;39.60;7.40;;;;;;4816050;29;20038;-92
2021/05/09 09:30:31;;;;;;;4.65;2.30;;;38.90;8.20;;;;;;4800257;29;20069;-94
2021/05/09 09:33:14;;;;;;;1.58;1.48;;;38.40;8.40;;;;;;4786136;29;20042;-92
2021/05/09 09:35:45;;;;;;;4.53;2.10;;;38.10;8.70;;;;;;4771529;29;20046;-91
2021/05/09 09:38:30;;;;;;;2.30;2.05;;;37.70;9.00;;;;;;4784130;29;20038;-88
2021/05/09 09:41:26;;;;;;;2.27;2.07;;;37.00;9.30;;;;;;4783416;29;20058;-89
2021/05/09 09:44:08;;;;;;;3.85;2.10;;;36.10;10.10;;;;;;4758381;29;20279;-89
2021/05/09 09:46:39;;;;;;;3.58;2.30;;;35.70;11.00;;;;;;4784240;29;20556;-91
2021/05/09 09:49:36;;;;;;;2.85;2.22;;;35.70;10.90;;;;;;4767471;29;20042;-90
2021/05/09 09:52:07;;;;;;;3.38;2.30;;;35.70;11.00;;;;;;4780135;29;20053;-89
2021/05/09 09:54:47;;;;;;;2.80;2.55;;;35.80;11.10;;;;;;4766528;29;20605;-89
2021/05/09 09:57:22;;;;;;;2.55;2.40;;;35.70;11.00;;;;;;4796082;29;20061;-88
2021/05/09 10:00:12;;;;;;;4.80;2.33;;;35.70;11.40;;;;;;4780765;29;20118;-89
2021/05/09 10:02:39;;;;;;;5.75;2.90;;;35.50;11.20;;;;;;4781588;29;20042;-88
2021/05/09 10:05:06;;;;;;;3.80;2.67;;;35.50;11.50;;;;;;4780401;29;20042;-89
2021/05/09 10:07:33;;;;;;;2.83;2.10;;;35.30;11.50;;;;;;4781410;29;20038;-89
2021/05/09 10:10:00;;;;;;;2.30;2.10;;;34.90;11.60;;;;;;4796952;29;20158;-91
2021/05/09 10:12:26;;;;;;;4.30;2.47;;;34.60;11.90;;;;;;4795980;29;20451;-90
2021/05/09 10:14:53;;;;;;;3.47;2.58;;;34.10;12.50;;;;;;4780513;29;20046;-89
2021/05/09 10:17:24;;;;;;;4.20;2.42;;;33.70;12.70;;;;;;4795405;29;20423;-88
2021/05/09 10:19:51;;;;;;;4.97;2.65;;;33.60;13.00;;;;;;4780783;29;20046;-89
2021/05/09 10:22:44;;;;;;;5.63;2.50;;;33.40;14.20;;;;;;4781288;29;20042;-89
2021/05/09 10:25:12;;;;;;;4.10;2.55;;;33.30;13.30;;;;;;4762530;29;20054;-89
2021/05/09 10:27:42;;;;;;;3.83;2.50;;;33.20;13.60;;;;;;4781500;29;20118;-89
2021/05/09 10:30:12;;;;;;;4.03;2.80;;;33.30;13.70;;;;;;4781605;29;20564;-89
2021/05/09 10:32:38;;;;;;;3.13;2.20;;;33.30;13.80;;;;;;4782515;29;20050;-89
2021/05/09 10:35:06;;;;;;;4.72;2.63;;;33.20;13.40;;;;;;4780243;29;20053;-90
2021/05/09 10:37:36;;;;;;;2.28;2.13;;;33.00;13.60;;;;;;4767862;29;20053;-89
2021/05/09 10:40:22;;;;;;;2.88;2.50;;;32.90;13.70;;;;;;4795461;29;20060;-89
2021/05/09 10:43:08;;;;;;;3.67;3.38;;;32.70;14.00;;;;;;4766334;29;20100;-87
2021/05/09 10:45:35;;;;;;;5.60;2.50;;;32.70;14.10;;;;;;4794079;29;20430;-89
2021/05/09 10:48:14;;;;;;;2.47;2.20;;;32.70;14.10;;;;;;4780038;29;20046;-90
2021/05/09 10:50:50;;;;;;;4.18;2.30;;;32.60;13.90;;;;;;4794526;29;20184;-89
2021/05/09 10:53:35;;;;;;;3.85;2.80;;;32.50;14.20;;;;;;4766598;29;20034;-89
2021/05/09 10:56:29;;;;;;;2.75;2.30;;;32.20;14.60;;;;;;4780269;29;20064;-88
2021/05/09 10:58:56;;;;;;;3.22;2.75;;;32.00;14.60;;;;;;4768101;29;20042;-89
2021/05/09 11:01:29;;;;;;;4.25;2.38;;;32.00;14.90;;;;;;4794717;29;20037;-89
2021/05/09 11:04:03;;;;;;;7.03;2.70;;;32.10;14.90;;;;;;4779857;29;20128;-90
2021/05/09 11:06:34;;;;;;;2.15;2.05;;;32.20;14.70;;;;;;4767898;29;20042;-90
2021/05/09 11:09:17;;;;;;;3.78;2.78;;;32.10;14.40;;;;;;4781676;29;20042;-90
2021/05/09 11:11:46;;;;;;;2.70;2.50;;;32.10;14.80;;;;;;4797923;29;20056;-90
2021/05/09 11:14:17;;;;;;;4.70;2.45;;;32.00;14.80;;;;;;4765728;29;20621;-90
2021/05/09 11:16:55;;;;;;;1.23;1.13;;;32.10;14.80;;;;;;4792733;29;20042;-88
2021/05/09 11:19:24;;;;;;;1.80;1.70;;;32.10;14.60;;;;;;4793636;29;20046;-90
2021/05/09 11:21:55;;;;;;;2.60;2.33;;;32.00;14.60;;;;;;4799560;29;20049;-89
2021/05/09 11:24:27;;;;;;;3.28;2.53;;;31.80;14.80;;;;;;4785376;29;20117;-89
2021/05/09 11:26:57;;;;;;;3.72;2.80;;;31.70;15.00;;;;;;4796719;29;20046;-90
2021/05/09 11:29:28;;;;;;;4.03;2.20;;;31.70;15.00;;;;;;4782386;29;20034;-91
2021/05/09 11:31:56;;;;;;;7.57;2.60;;;31.60;15.10;;;;;;4780149;29;20522;-89
2021/05/09 11:34:25;;;;;;;5.38;2.53;;;31.60;15.00;;;;;;4780885;29;20053;-89
2021/05/09 11:36:54;;;;;;;2.40;2.20;;;31.40;15.20;;;;;;4781105;29;20034;-88
2021/05/09 11:39:39;;;;;;;2.97;2.65;;;31.30;15.30;;;;;;4780016;29;20039;-89
2021/05/09 11:42:16;;;;;;;8.00;3.37;;;31.20;15.30;;;;;;4779749;29;20045;-89
2021/05/09 11:44:51;;;;;;;2.50;2.30;;;31.00;15.60;;;;;;4795687;29;20267;-90
2021/05/09 11:47:26;;;;;;;3.25;2.47;;;30.90;15.70;;;;;;4779799;29;20116;-90
2021/05/09 11:50:08;;;;;;;3.67;2.22;;;30.80;15.80;;;;;;4782748;29;20042;-89
2021/05/09 11:52:44;;;;;;;6.63;2.97;;;30.80;16.00;;;;;;4784020;29;20053;-89
2021/05/09 11:55:14;;;;;;;2.72;2.50;;;30.70;16.00;;;;;;4782259;29;20189;-89
2021/05/09 11:57:41;;;;;;;5.43;2.45;;;30.70;16.20;;;;;;4782746;29;20042;-89
2021/05/09 12:00:18;;;;;;;4.70;2.55;;;30.60;16.30;;;;;;4782466;29;20053;-89
2021/05/09 12:02:46;;;;;;;4.38;2.90;;;30.50;16.30;;;;;;4788977;29;20132;-90
2021/05/09 12:05:24;;;;;;;3.92;2.72;;;30.40;16.60;;;;;;4791378;29;20130;-90
2021/05/09 12:07:55;;;;;;;5.65;2.72;;;30.20;16.80;;;;;;4774603;29;20450;-88
2021/05/09 12:10:25;;;;;;;6.38;2.20;;;30.00;17.90;;;;;;4776122;29;20125;-90
2021/05/09 12:13:08;;;;;;;2.80;2.60;;;29.60;18.70;;;;;;4804882;29;20050;-89
2021/05/09 12:15:43;;;;;;;2.58;2.38;;;29.20;19.40;;;;;;4788661;29;20057;-89
2021/05/09 12:18:11;;;;;;;2.17;2.00;;;29.00;19.80;;;;;;4791279;29;20065;-89
2021/05/09 12:20:47;;;;;;;2.83;2.63;;;28.80;20.50;;;;;;4789703;29;20163;-88
2021/05/09 12:23:16;;;;;;;4.57;2.85;;;28.60;20.80;;;;;;4787144;29;20054;-88
2021/05/09 12:25:49;;;;;;;3.58;3.05;;;28.50;21.20;;;;;;4784573;29;20069;-89
2021/05/09 12:28:30;;;;;;;6.90;3.33;;;28.40;21.40;;;;;;4785589;29;20046;-89
2021/05/09 12:31:10;;;;;;;8.73;3.80;;;28.50;21.80;;;;;;4798391;29;20046;-89
2021/05/09 12:33:37;;;;;;;5.50;3.38;;;28.60;21.70;;;;;;4798241;29;20046;-89
2021/05/09 12:36:17;;;;;;;5.40;3.05;;;28.80;21.60;;;;;;4798130;29;20087;-89
2021/05/09 12:38:44;;;;;;;3.28;3.00;;;29.00;21.50;;;;;;4783175;29;20039;-89
2021/05/09 12:41:19;;;;;;;4.05;3.30;;;29.00;21.50;;;;;;4797440;29;20510;-88
2021/05/09 12:43:56;;;;;;;7.10;3.45;;;29.10;21.40;;;;;;4783513;29;20042;-90
2021/05/09 12:46:42;;;;;;;4.07;3.33;;;29.20;21.50;;;;;;4782775;29;20042;-89
2021/05/09 12:49:12;;;;;;;5.18;4.68;;;29.30;21.40;;;;;;4784215;29;20053;-90
2021/05/09 12:52:00;;;;;;;7.95;5.97;;;29.40;21.40;;;;;;4783799;29;20110;-89
2021/05/09 12:54:43;;;;;;;5.18;3.55;;;29.40;21.40;;;;;;4783106;29;20114;-89
2021/05/09 12:57:31;;;;;;;3.50;3.20;;;29.50;21.20;;;;;;4797820;29;20042;-89
2021/05/09 13:00:04;;;;;;;3.40;2.95;;;29.50;21.10;;;;;;4782773;29;20042;-90
2021/05/09 13:02:46;;;;;;;4.45;3.45;;;29.50;20.90;;;;;;4782141;29;20048;-89
2021/05/09 13:05:14;;;;;;;4.95;3.95;;;29.60;21.00;;;;;;4782974;29;20042;-91
2021/05/09 13:07:40;;;;;;;4.28;3.33;;;29.60;20.90;;;;;;4767702;29;20042;-90
2021/05/09 13:10:07;;;;;;;6.13;3.42;;;29.60;20.90;;;;;;4782712;29;20187;-91